sensor_id;sensor_type;location;lat;lon;timestamp;P1;durP1;ratioP1;P2;durP2;ratioP2
74471;SDS011;73591;53.714;10.514;2024-02-21T00:01:24;49.35;;;17.60;;
74471;SDS011;73591;53.714;10.514;2024-02-21T00:03:50;33.95;;;15.32;;
74471;SDS011;73591;53.714;10.514;2024-02-21T00:06:15;36.88;;;15.07;;
74471;SDS011;73591;53.714;10.514;2024-02-21T00:08:40;39.05;;;16.63;;
74471;SDS011;73591;53.714;10.514;2024-02-21T00:11:06;39.45;;;15.50;;
74471;SDS011;73591;53.714;10.514;2024-02-21T00:13:31;43.15;;;16.15;;
74471;SDS011;73591;53.714;10.514;2024-02-21T00:15:57;30.00;;;11.52;;
74471;SDS011;73591;53.714;10.514;2024-02-21T00:18:22;37.55;;;15.95;;
74471;SDS011;73591;53.714;10.514;2024-02-21T00:20:47;41.55;;;15.65;;
74471;SDS011;73591;53.714;10.514;2024-02-21T00:23:13;29.77;;;13.02;;
74471;SDS011;73591;53.714;10.514;2024-02-21T00:25:38;39.75;;;15.13;;
74471;SDS011;73591;53.714;10.514;2024-02-21T00:28:03;36.85;;;13.77;;
74471;SDS011;73591;53.714;10.514;2024-02-21T00:30:30;29.02;;;11.88;;
74471;SDS011;73591;53.714;10.514;2024-02-21T00:32:56;29.92;;;13.80;;
74471;SDS011;73591;53.714;10.514;2024-02-21T00:35:21;31.98;;;13.93;;
74471;SDS011;73591;53.714;10.514;2024-02-21T00:37:46;28.67;;;11.82;;
74471;SDS011;73591;53.714;10.514;2024-02-21T00:40:12;30.00;;;12.32;;
74471;SDS011;73591;53.714;10.514;2024-02-21T00:42:37;40.28;;;16.02;;
74471;SDS011;73591;53.714;10.514;2024-02-21T00:45:03;26.73;;;12.75;;
74471;SDS011;73591;53.714;10.514;2024-02-21T00:47:28;32.53;;;13.20;;
74471;SDS011;73591;53.714;10.514;2024-02-21T00:49:53;36.13;;;14.18;;
74471;SDS011;73591;53.714;10.514;2024-02-21T00:52:20;37.65;;;16.23;;
74471;SDS011;73591;53.714;10.514;2024-02-21T00:54:45;36.92;;;16.10;;
74471;SDS011;73591;53.714;10.514;2024-02-21T00:57:11;40.40;;;15.75;;
74471;SDS011;73591;53.714;10.514;2024-02-21T00:59:37;37.80;;;16.35;;
74471;SDS011;73591;53.714;10.514;2024-02-21T01:02:02;23.10;;;10.07;;
74471;SDS011;73591;53.714;10.514;2024-02-21T01:04:28;44.65;;;17.27;;
74471;SDS011;73591;53.714;10.514;2024-02-21T01:06:53;34.55;;;16.95;;
74471;SDS011;73591;53.714;10.514;2024-02-21T01:09:18;37.78;;;14.45;;
74471;SDS011;73591;53.714;10.514;2024-02-21T01:11:44;36.00;;;15.50;;
74471;SDS011;73591;53.714;10.514;2024-02-21T01:14:09;43.55;;;16.58;;
74471;SDS011;73591;53.714;10.514;2024-02-21T01:16:36;33.00;;;9.52;;
74471;SDS011;73591;53.714;10.514;2024-02-21T01:19:01;40.05;;;17.20;;
74471;SDS011;73591;53.714;10.514;2024-02-21T01:21:26;30.88;;;12.77;;
74471;SDS011;73591;53.714;10.514;2024-02-21T01:23:52;37.17;;;15.73;;
74471;SDS011;73591;53.714;10.514;2024-02-21T01:26:17;27.95;;;13.05;;
74471;SDS011;73591;53.714;10.514;2024-02-21T01:28:43;38.33;;;18.38;;
74471;SDS011;73591;53.714;10.514;2024-02-21T01:31:08;51.95;;;17.70;;
74471;SDS011;73591;53.714;10.514;2024-02-21T01:33:34;35.70;;;16.63;;
74471;SDS011;73591;53.714;10.514;2024-02-21T01:36:04;30.85;;;12.77;;
74471;SDS011;73591;53.714;10.514;2024-02-21T01:38:31;37.15;;;15.88;;
74471;SDS011;73591;53.714;10.514;2024-02-21T01:40:57;51.35;;;19.33;;
74471;SDS011;73591;53.714;10.514;2024-02-21T01:43:23;37.42;;;15.10;;
74471;SDS011;73591;53.714;10.514;2024-02-21T01:45:49;46.15;;;19.23;;
74471;SDS011;73591;53.714;10.514;2024-02-21T01:48:16;37.33;;;16.92;;
74471;SDS011;73591;53.714;10.514;2024-02-21T01:50:43;32.35;;;12.90;;
74471;SDS011;73591;53.714;10.514;2024-02-21T01:53:09;55.40;;;21.42;;
74471;SDS011;73591;53.714;10.514;2024-02-21T01:55:35;54.88;;;20.95;;
74471;SDS011;73591;53.714;10.514;2024-02-21T01:58:01;43.58;;;14.13;;
74471;SDS011;73591;53.714;10.514;2024-02-21T02:00:26;51.88;;;17.55;;
74471;SDS011;73591;53.714;10.514;2024-02-21T02:02:52;46.47;;;18.50;;
74471;SDS011;73591;53.714;10.514;2024-02-21T02:05:17;54.58;;;18.77;;
74471;SDS011;73591;53.714;10.514;2024-02-21T02:07:46;40.80;;;16.95;;
74471;SDS011;73591;53.714;10.514;2024-02-21T02:10:11;49.72;;;19.23;;
74471;SDS011;73591;53.714;10.514;2024-02-21T02:12:36;47.78;;;16.80;;
74471;SDS011;73591;53.714;10.514;2024-02-21T02:15:02;24.88;;;10.65;;
74471;SDS011;73591;53.714;10.514;2024-02-21T02:17:29;43.75;;;16.58;;
74471;SDS011;73591;53.714;10.514;2024-02-21T02:19:55;38.55;;;14.45;;
74471;SDS011;73591;53.714;10.514;2024-02-21T02:22:22;37.88;;;14.98;;
74471;SDS011;73591;53.714;10.514;2024-02-21T02:24:49;35.38;;;14.25;;
74471;SDS011;73591;53.714;10.514;2024-02-21T02:27:15;43.15;;;16.85;;
74471;SDS011;73591;53.714;10.514;2024-02-21T02:29:40;29.20;;;10.52;;
74471;SDS011;73591;53.714;10.514;2024-02-21T02:32:06;49.80;;;19.40;;
74471;SDS011;73591;53.714;10.514;2024-02-21T02:34:31;42.92;;;16.50;;
74471;SDS011;73591;53.714;10.514;2024-02-21T02:36:56;40.17;;;15.95;;
74471;SDS011;73591;53.714;10.514;2024-02-21T02:39:22;34.42;;;13.25;;
74471;SDS011;73591;53.714;10.514;2024-02-21T02:41:47;30.75;;;13.10;;
74471;SDS011;73591;53.714;10.514;2024-02-21T02:44:12;38.38;;;15.30;;
74471;SDS011;73591;53.714;10.514;2024-02-21T02:46:40;43.58;;;15.90;;
74471;SDS011;73591;53.714;10.514;2024-02-21T02:49:06;48.60;;;17.63;;
74471;SDS011;73591;53.714;10.514;2024-02-21T02:51:31;33.92;;;14.57;;
74471;SDS011;73591;53.714;10.514;2024-02-21T02:53:57;41.08;;;16.27;;
74471;SDS011;73591;53.714;10.514;2024-02-21T02:56:22;26.70;;;12.38;;
74471;SDS011;73591;53.714;10.514;2024-02-21T02:58:48;50.88;;;16.15;;
74471;SDS011;73591;53.714;10.514;2024-02-21T03:01:13;32.85;;;14.00;;
74471;SDS011;73591;53.714;10.514;2024-02-21T03:03:39;45.60;;;18.13;;
74471;SDS011;73591;53.714;10.514;2024-02-21T03:06:05;39.42;;;17.13;;
74471;SDS011;73591;53.714;10.514;2024-02-21T03:08:30;34.85;;;15.85;;
74471;SDS011;73591;53.714;10.514;2024-02-21T03:10:56;45.55;;;17.88;;
74471;SDS011;73591;53.714;10.514;2024-02-21T03:13:21;39.85;;;19.08;;
74471;SDS011;73591;53.714;10.514;2024-02-21T03:15:46;45.42;;;19.98;;
74471;SDS011;73591;53.714;10.514;2024-02-21T03:18:12;35.35;;;14.70;;
74471;SDS011;73591;53.714;10.514;2024-02-21T03:20:37;39.22;;;16.08;;
74471;SDS011;73591;53.714;10.514;2024-02-21T03:23:02;46.95;;;18.83;;
74471;SDS011;73591;53.714;10.514;2024-02-21T03:25:28;45.67;;;18.73;;
74471;SDS011;73591;53.714;10.514;2024-02-21T03:27:53;39.70;;;17.27;;
74471;SDS011;73591;53.714;10.514;2024-02-21T03:30:18;46.38;;;22.05;;
74471;SDS011;73591;53.714;10.514;2024-02-21T03:32:44;37.08;;;17.20;;
74471;SDS011;73591;53.714;10.514;2024-02-21T03:35:09;42.25;;;18.95;;
74471;SDS011;73591;53.714;10.514;2024-02-21T03:37:34;46.55;;;19.83;;
74471;SDS011;73591;53.714;10.514;2024-02-21T03:40:00;34.90;;;18.02;;
74471;SDS011;73591;53.714;10.514;2024-02-21T03:42:25;41.75;;;19.27;;
74471;SDS011;73591;53.714;10.514;2024-02-21T03:44:50;38.45;;;17.30;;
74471;SDS011;73591;53.714;10.514;2024-02-21T03:47:16;48.00;;;19.08;;
74471;SDS011;73591;53.714;10.514;2024-02-21T03:49:41;43.33;;;20.25;;
74471;SDS011;73591;53.714;10.514;2024-02-21T03:52:07;42.88;;;18.45;;
74471;SDS011;73591;53.714;10.514;2024-02-21T03:54:33;44.20;;;15.82;;
74471;SDS011;73591;53.714;10.514;2024-02-21T03:56:58;44.60;;;18.52;;
74471;SDS011;73591;53.714;10.514;2024-02-21T03:59:23;38.35;;;15.52;;
74471;SDS011;73591;53.714;10.514;2024-02-21T04:01:52;53.33;;;21.60;;
74471;SDS011;73591;53.714;10.514;2024-02-21T04:04:18;48.03;;;20.50;;
74471;SDS011;73591;53.714;10.514;2024-02-21T04:06:50;44.38;;;17.73;;
74471;SDS011;73591;53.714;10.514;2024-02-21T04:09:15;50.35;;;20.42;;
74471;SDS011;73591;53.714;10.514;2024-02-21T04:11:41;48.05;;;18.40;;
74471;SDS011;73591;53.714;10.514;2024-02-21T04:14:06;48.17;;;19.85;;
74471;SDS011;73591;53.714;10.514;2024-02-21T04:16:32;47.95;;;18.17;;
74471;SDS011;73591;53.714;10.514;2024-02-21T04:18:57;36.80;;;15.95;;
74471;SDS011;73591;53.714;10.514;2024-02-21T04:21:23;42.03;;;17.88;;
74471;SDS011;73591;53.714;10.514;2024-02-21T04:23:48;44.40;;;18.00;;
74471;SDS011;73591;53.714;10.514;2024-02-21T04:26:13;26.60;;;12.48;;
74471;SDS011;73591;53.714;10.514;2024-02-21T04:28:39;34.42;;;16.25;;
74471;SDS011;73591;53.714;10.514;2024-02-21T04:31:04;31.67;;;14.38;;
74471;SDS011;73591;53.714;10.514;2024-02-21T04:33:29;37.65;;;16.58;;
74471;SDS011;73591;53.714;10.514;2024-02-21T04:35:55;39.35;;;17.77;;
74471;SDS011;73591;53.714;10.514;2024-02-21T04:38:20;29.02;;;13.18;;
74471;SDS011;73591;53.714;10.514;2024-02-21T04:40:45;35.05;;;14.48;;
74471;SDS011;73591;53.714;10.514;2024-02-21T04:43:11;43.35;;;17.30;;
74471;SDS011;73591;53.714;10.514;2024-02-21T04:45:36;26.70;;;12.93;;
74471;SDS011;73591;53.714;10.514;2024-02-21T04:48:01;47.83;;;16.40;;
74471;SDS011;73591;53.714;10.514;2024-02-21T04:50:27;30.80;;;13.45;;
74471;SDS011;73591;53.714;10.514;2024-02-21T04:52:52;43.28;;;18.25;;
74471;SDS011;73591;53.714;10.514;2024-02-21T04:55:18;37.10;;;17.55;;
74471;SDS011;73591;53.714;10.514;2024-02-21T04:57:43;25.88;;;11.85;;
74471;SDS011;73591;53.714;10.514;2024-02-21T05:00:08;32.35;;;12.25;;
74471;SDS011;73591;53.714;10.514;2024-02-21T05:02:34;30.17;;;12.68;;
74471;SDS011;73591;53.714;10.514;2024-02-21T05:05:00;35.47;;;14.80;;
74471;SDS011;73591;53.714;10.514;2024-02-21T05:07:25;39.75;;;15.77;;
74471;SDS011;73591;53.714;10.514;2024-02-21T05:09:50;36.35;;;13.35;;
74471;SDS011;73591;53.714;10.514;2024-02-21T05:12:16;27.42;;;12.77;;
74471;SDS011;73591;53.714;10.514;2024-02-21T05:14:41;36.45;;;15.50;;
74471;SDS011;73591;53.714;10.514;2024-02-21T05:17:06;38.15;;;15.75;;
74471;SDS011;73591;53.714;10.514;2024-02-21T05:19:32;29.20;;;13.27;;
74471;SDS011;73591;53.714;10.514;2024-02-21T05:21:58;32.17;;;14.30;;
74471;SDS011;73591;53.714;10.514;2024-02-21T05:24:24;32.72;;;12.65;;
74471;SDS011;73591;53.714;10.514;2024-02-21T05:26:49;37.13;;;13.60;;
74471;SDS011;73591;53.714;10.514;2024-02-21T05:29:14;19.77;;;10.80;;
74471;SDS011;73591;53.714;10.514;2024-02-21T05:34:18;24.60;;;11.63;;
74471;SDS011;73591;53.714;10.514;2024-02-21T05:36:43;27.48;;;11.45;;
74471;SDS011;73591;53.714;10.514;2024-02-21T05:39:09;25.70;;;11.50;;
74471;SDS011;73591;53.714;10.514;2024-02-21T05:41:34;27.23;;;11.05;;
74471;SDS011;73591;53.714;10.514;2024-02-21T05:44:00;21.88;;;8.93;;
74471;SDS011;73591;53.714;10.514;2024-02-21T05:46:25;23.02;;;10.82;;
74471;SDS011;73591;53.714;10.514;2024-02-21T05:48:50;26.40;;;10.05;;
74471;SDS011;73591;53.714;10.514;2024-02-21T05:51:15;25.30;;;10.18;;
74471;SDS011;73591;53.714;10.514;2024-02-21T05:53:41;21.40;;;9.48;;
74471;SDS011;73591;53.714;10.514;2024-02-21T05:56:13;18.83;;;9.10;;
74471;SDS011;73591;53.714;10.514;2024-02-21T05:58:39;22.90;;;9.02;;
74471;SDS011;73591;53.714;10.514;2024-02-21T06:01:05;16.70;;;8.18;;
74471;SDS011;73591;53.714;10.514;2024-02-21T06:03:31;19.10;;;8.13;;
74471;SDS011;73591;53.714;10.514;2024-02-21T06:05:57;11.50;;;5.88;;
74471;SDS011;73591;53.714;10.514;2024-02-21T06:08:23;18.42;;;8.38;;
74471;SDS011;73591;53.714;10.514;2024-02-21T06:10:49;14.00;;;6.88;;
74471;SDS011;73591;53.714;10.514;2024-02-21T06:13:17;14.45;;;7.03;;
74471;SDS011;73591;53.714;10.514;2024-02-21T06:15:42;14.13;;;6.47;;
74471;SDS011;73591;53.714;10.514;2024-02-21T06:18:07;15.45;;;6.65;;
74471;SDS011;73591;53.714;10.514;2024-02-21T06:20:33;13.95;;;6.38;;
74471;SDS011;73591;53.714;10.514;2024-02-21T06:23:01;17.02;;;8.40;;
74471;SDS011;73591;53.714;10.514;2024-02-21T06:25:26;15.70;;;7.13;;
74471;SDS011;73591;53.714;10.514;2024-02-21T06:27:51;11.80;;;5.72;;
74471;SDS011;73591;53.714;10.514;2024-02-21T06:30:17;12.75;;;5.18;;
74471;SDS011;73591;53.714;10.514;2024-02-21T06:32:42;10.88;;;5.60;;
74471;SDS011;73591;53.714;10.514;2024-02-21T06:35:07;14.23;;;5.85;;
74471;SDS011;73591;53.714;10.514;2024-02-21T06:37:33;11.35;;;5.90;;
74471;SDS011;73591;53.714;10.514;2024-02-21T06:39:58;13.68;;;5.70;;
74471;SDS011;73591;53.714;10.514;2024-02-21T06:42:24;13.00;;;5.50;;
74471;SDS011;73591;53.714;10.514;2024-02-21T06:44:50;14.05;;;5.80;;
74471;SDS011;73591;53.714;10.514;2024-02-21T06:47:15;10.48;;;4.80;;
74471;SDS011;73591;53.714;10.514;2024-02-21T06:49:40;8.93;;;4.05;;
74471;SDS011;73591;53.714;10.514;2024-02-21T06:52:06;11.32;;;4.82;;
74471;SDS011;73591;53.714;10.514;2024-02-21T06:54:32;8.30;;;3.88;;
74471;SDS011;73591;53.714;10.514;2024-02-21T06:56:57;8.98;;;4.78;;
74471;SDS011;73591;53.714;10.514;2024-02-21T06:59:23;9.60;;;5.10;;
74471;SDS011;73591;53.714;10.514;2024-02-21T07:01:48;8.07;;;3.38;;
74471;SDS011;73591;53.714;10.514;2024-02-21T07:04:14;10.27;;;4.05;;
74471;SDS011;73591;53.714;10.514;2024-02-21T07:06:40;9.57;;;4.32;;
74471;SDS011;73591;53.714;10.514;2024-02-21T07:09:05;8.15;;;2.42;;
74471;SDS011;73591;53.714;10.514;2024-02-21T07:11:30;6.32;;;2.22;;
74471;SDS011;73591;53.714;10.514;2024-02-21T07:13:56;4.80;;;2.20;;
74471;SDS011;73591;53.714;10.514;2024-02-21T07:16:21;6.43;;;2.05;;
74471;SDS011;73591;53.714;10.514;2024-02-21T07:18:46;5.35;;;1.75;;
74471;SDS011;73591;53.714;10.514;2024-02-21T07:21:12;5.63;;;1.77;;
74471;SDS011;73591;53.714;10.514;2024-02-21T07:23:40;6.35;;;1.80;;
74471;SDS011;73591;53.714;10.514;2024-02-21T07:26:06;4.38;;;1.88;;
74471;SDS011;73591;53.714;10.514;2024-02-21T07:28:31;6.68;;;1.50;;
74471;SDS011;73591;53.714;10.514;2024-02-21T07:30:58;5.60;;;1.75;;
74471;SDS011;73591;53.714;10.514;2024-02-21T07:33:24;5.72;;;2.05;;
74471;SDS011;73591;53.714;10.514;2024-02-21T07:35:49;5.45;;;1.80;;
74471;SDS011;73591;53.714;10.514;2024-02-21T07:38:14;7.85;;;2.25;;
74471;SDS011;73591;53.714;10.514;2024-02-21T07:40:40;6.53;;;2.30;;
74471;SDS011;73591;53.714;10.514;2024-02-21T07:43:05;5.63;;;2.28;;
74471;SDS011;73591;53.714;10.514;2024-02-21T07:45:30;7.55;;;2.20;;
74471;SDS011;73591;53.714;10.514;2024-02-21T07:47:56;7.43;;;2.70;;
74471;SDS011;73591;53.714;10.514;2024-02-21T07:50:21;6.20;;;2.47;;
74471;SDS011;73591;53.714;10.514;2024-02-21T07:52:47;7.50;;;2.95;;
74471;SDS011;73591;53.714;10.514;2024-02-21T07:55:12;8.75;;;3.15;;
74471;SDS011;73591;53.714;10.514;2024-02-21T07:57:37;7.13;;;3.17;;
74471;SDS011;73591;53.714;10.514;2024-02-21T08:00:03;8.20;;;3.13;;
74471;SDS011;73591;53.714;10.514;2024-02-21T08:02:34;9.77;;;3.17;;
74471;SDS011;73591;53.714;10.514;2024-02-21T08:05:00;7.03;;;3.15;;
74471;SDS011;73591;53.714;10.514;2024-02-21T08:07:25;9.13;;;3.22;;
74471;SDS011;73591;53.714;10.514;2024-02-21T08:09:53;6.05;;;2.63;;
74471;SDS011;73591;53.714;10.514;2024-02-21T08:12:19;7.80;;;3.00;;
74471;SDS011;73591;53.714;10.514;2024-02-21T08:14:44;5.45;;;3.10;;
74471;SDS011;73591;53.714;10.514;2024-02-21T08:17:09;5.72;;;2.25;;
74471;SDS011;73591;53.714;10.514;2024-02-21T08:19:36;9.80;;;2.65;;
74471;SDS011;73591;53.714;10.514;2024-02-21T08:22:01;5.63;;;2.30;;
74471;SDS011;73591;53.714;10.514;2024-02-21T08:24:26;5.60;;;2.08;;
74471;SDS011;73591;53.714;10.514;2024-02-21T08:26:52;6.50;;;2.30;;
74471;SDS011;73591;53.714;10.514;2024-02-21T08:29:17;8.43;;;2.28;;
74471;SDS011;73591;53.714;10.514;2024-02-21T08:31:42;5.45;;;1.85;;
74471;SDS011;73591;53.714;10.514;2024-02-21T08:34:08;8.48;;;2.40;;
74471;SDS011;73591;53.714;10.514;2024-02-21T08:36:34;9.07;;;2.72;;
74471;SDS011;73591;53.714;10.514;2024-02-21T08:39:00;9.95;;;2.75;;
74471;SDS011;73591;53.714;10.514;2024-02-21T08:41:26;7.05;;;2.40;;
74471;SDS011;73591;53.714;10.514;2024-02-21T08:43:52;9.18;;;2.80;;
74471;SDS011;73591;53.714;10.514;2024-02-21T08:46:18;9.35;;;2.47;;
74471;SDS011;73591;53.714;10.514;2024-02-21T08:48:47;8.30;;;2.35;;
74471;SDS011;73591;53.714;10.514;2024-02-21T08:51:13;11.85;;;2.38;;
74471;SDS011;73591;53.714;10.514;2024-02-21T08:53:38;11.75;;;2.05;;
74471;SDS011;73591;53.714;10.514;2024-02-21T08:56:04;12.35;;;2.60;;
74471;SDS011;73591;53.714;10.514;2024-02-21T08:58:30;14.70;;;3.13;;
74471;SDS011;73591;53.714;10.514;2024-02-21T09:00:55;10.48;;;2.45;;
74471;SDS011;73591;53.714;10.514;2024-02-21T09:03:21;14.20;;;2.50;;
74471;SDS011;73591;53.714;10.514;2024-02-21T09:05:47;11.15;;;2.55;;
74471;SDS011;73591;53.714;10.514;2024-02-21T09:08:12;12.07;;;2.17;;
74471;SDS011;73591;53.714;10.514;2024-02-21T09:10:39;12.20;;;2.38;;
74471;SDS011;73591;53.714;10.514;2024-02-21T09:13:04;10.80;;;2.35;;
74471;SDS011;73591;53.714;10.514;2024-02-21T09:15:30;16.55;;;2.50;;
74471;SDS011;73591;53.714;10.514;2024-02-21T09:17:55;14.02;;;2.38;;
74471;SDS011;73591;53.714;10.514;2024-02-21T09:20:20;9.45;;;2.53;;
74471;SDS011;73591;53.714;10.514;2024-02-21T09:22:46;16.75;;;3.42;;
74471;SDS011;73591;53.714;10.514;2024-02-21T09:25:11;10.05;;;2.65;;
74471;SDS011;73591;53.714;10.514;2024-02-21T09:27:37;12.40;;;2.15;;
74471;SDS011;73591;53.714;10.514;2024-02-21T09:30:03;9.48;;;1.83;;
74471;SDS011;73591;53.714;10.514;2024-02-21T09:32:30;13.73;;;2.25;;
74471;SDS011;73591;53.714;10.514;2024-02-21T09:34:55;11.05;;;2.45;;
74471;SDS011;73591;53.714;10.514;2024-02-21T09:37:21;14.98;;;3.38;;
74471;SDS011;73591;53.714;10.514;2024-02-21T09:39:46;12.23;;;3.30;;
74471;SDS011;73591;53.714;10.514;2024-02-21T09:42:12;11.23;;;2.40;;
74471;SDS011;73591;53.714;10.514;2024-02-21T09:44:39;15.25;;;2.05;;
74471;SDS011;73591;53.714;10.514;2024-02-21T09:47:19;13.13;;;1.92;;
74471;SDS011;73591;53.714;10.514;2024-02-21T09:49:48;12.10;;;1.80;;
74471;SDS011;73591;53.714;10.514;2024-02-21T09:52:13;13.75;;;2.40;;
74471;SDS011;73591;53.714;10.514;2024-02-21T09:54:40;11.70;;;2.10;;
74471;SDS011;73591;53.714;10.514;2024-02-21T09:57:10;15.23;;;2.25;;
74471;SDS011;73591;53.714;10.514;2024-02-21T09:59:36;12.32;;;1.88;;
74471;SDS011;73591;53.714;10.514;2024-02-21T10:02:02;12.02;;;2.35;;
74471;SDS011;73591;53.714;10.514;2024-02-21T10:04:29;8.05;;;1.63;;
74471;SDS011;73591;53.714;10.514;2024-02-21T10:09:20;9.50;;;1.70;;
74471;SDS011;73591;53.714;10.514;2024-02-21T10:11:47;17.17;;;2.00;;
74471;SDS011;73591;53.714;10.514;2024-02-21T10:14:13;8.05;;;2.05;;
74471;SDS011;73591;53.714;10.514;2024-02-21T10:16:40;13.23;;;2.17;;
74471;SDS011;73591;53.714;10.514;2024-02-21T10:19:05;14.25;;;2.50;;
74471;SDS011;73591;53.714;10.514;2024-02-21T10:21:31;9.40;;;2.15;;
74471;SDS011;73591;53.714;10.514;2024-02-21T10:23:56;12.50;;;2.30;;
74471;SDS011;73591;53.714;10.514;2024-02-21T10:26:21;9.50;;;1.75;;
74471;SDS011;73591;53.714;10.514;2024-02-21T10:28:47;15.82;;;2.80;;
74471;SDS011;73591;53.714;10.514;2024-02-21T10:31:26;11.68;;;1.95;;
74471;SDS011;73591;53.714;10.514;2024-02-21T10:33:59;10.70;;;2.30;;
74471;SDS011;73591;53.714;10.514;2024-02-21T10:36:30;12.60;;;2.72;;
74471;SDS011;73591;53.714;10.514;2024-02-21T10:38:56;13.18;;;2.10;;
74471;SDS011;73591;53.714;10.514;2024-02-21T10:41:21;17.77;;;2.60;;
74471;SDS011;73591;53.714;10.514;2024-02-21T10:43:51;9.02;;;2.60;;
74471;SDS011;73591;53.714;10.514;2024-02-21T10:46:19;12.60;;;1.95;;
74471;SDS011;73591;53.714;10.514;2024-02-21T10:48:45;9.02;;;2.33;;
74471;SDS011;73591;53.714;10.514;2024-02-21T10:53:44;10.07;;;2.13;;
74471;SDS011;73591;53.714;10.514;2024-02-21T10:58:40;6.95;;;1.80;;
74471;SDS011;73591;53.714;10.514;2024-02-21T11:01:06;8.70;;;2.03;;
74471;SDS011;73591;53.714;10.514;2024-02-21T11:03:32;13.68;;;2.38;;
74471;SDS011;73591;53.714;10.514;2024-02-21T11:05:58;10.15;;;2.13;;
74471;SDS011;73591;53.714;10.514;2024-02-21T11:08:24;4.25;;;1.90;;
74471;SDS011;73591;53.714;10.514;2024-02-21T11:10:56;5.13;;;2.00;;
74471;SDS011;73591;53.714;10.514;2024-02-21T11:13:29;7.18;;;2.05;;
74471;SDS011;73591;53.714;10.514;2024-02-21T11:16:05;6.00;;;2.42;;
74471;SDS011;73591;53.714;10.514;2024-02-21T11:18:46;7.18;;;2.55;;
74471;SDS011;73591;53.714;10.514;2024-02-21T11:21:12;7.28;;;2.55;;
74471;SDS011;73591;53.714;10.514;2024-02-21T11:23:37;5.93;;;3.22;;
74471;SDS011;73591;53.714;10.514;2024-02-21T11:26:06;9.95;;;3.90;;
74471;SDS011;73591;53.714;10.514;2024-02-21T11:28:32;10.85;;;4.10;;
74471;SDS011;73591;53.714;10.514;2024-02-21T11:31:13;7.03;;;3.70;;
74471;SDS011;73591;53.714;10.514;2024-02-21T11:33:40;9.75;;;5.00;;
74471;SDS011;73591;53.714;10.514;2024-02-21T11:36:07;11.55;;;6.13;;
74471;SDS011;73591;53.714;10.514;2024-02-21T11:38:35;9.85;;;5.03;;
74471;SDS011;73591;53.714;10.514;2024-02-21T11:41:01;11.95;;;6.50;;
74471;SDS011;73591;53.714;10.514;2024-02-21T11:43:26;15.85;;;6.47;;
74471;SDS011;73591;53.714;10.514;2024-02-21T11:45:59;13.75;;;7.20;;
74471;SDS011;73591;53.714;10.514;2024-02-21T11:48:25;17.50;;;9.57;;
74471;SDS011;73591;53.714;10.514;2024-02-21T11:50:54;18.13;;;9.13;;
74471;SDS011;73591;53.714;10.514;2024-02-21T11:53:20;17.98;;;9.18;;
74471;SDS011;73591;53.714;10.514;2024-02-21T11:55:46;22.05;;;9.50;;
74471;SDS011;73591;53.714;10.514;2024-02-21T11:58:11;19.88;;;10.88;;
74471;SDS011;73591;53.714;10.514;2024-02-21T12:00:36;22.35;;;11.60;;
74471;SDS011;73591;53.714;10.514;2024-02-21T12:03:02;26.17;;;12.50;;
74471;SDS011;73591;53.714;10.514;2024-02-21T12:05:29;25.23;;;11.95;;
74471;SDS011;73591;53.714;10.514;2024-02-21T12:07:54;24.08;;;12.63;;
74471;SDS011;73591;53.714;10.514;2024-02-21T12:10:20;21.08;;;9.60;;
74471;SDS011;73591;53.714;10.514;2024-02-21T12:12:45;15.90;;;8.85;;
74471;SDS011;73591;53.714;10.514;2024-02-21T12:15:12;20.70;;;10.30;;
74471;SDS011;73591;53.714;10.514;2024-02-21T12:17:37;24.52;;;10.13;;
74471;SDS011;73591;53.714;10.514;2024-02-21T12:20:04;26.83;;;12.45;;
74471;SDS011;73591;53.714;10.514;2024-02-21T12:22:33;26.33;;;12.65;;
74471;SDS011;73591;53.714;10.514;2024-02-21T12:25:02;22.20;;;9.75;;
74471;SDS011;73591;53.714;10.514;2024-02-21T12:27:29;23.10;;;10.57;;
74471;SDS011;73591;53.714;10.514;2024-02-21T12:29:55;17.23;;;8.48;;
74471;SDS011;73591;53.714;10.514;2024-02-21T12:32:20;20.75;;;10.52;;
74471;SDS011;73591;53.714;10.514;2024-02-21T12:34:45;25.25;;;11.63;;
74471;SDS011;73591;53.714;10.514;2024-02-21T12:37:12;20.55;;;8.93;;
74471;SDS011;73591;53.714;10.514;2024-02-21T12:39:38;24.13;;;10.52;;
74471;SDS011;73591;53.714;10.514;2024-02-21T12:42:03;22.55;;;10.77;;
74471;SDS011;73591;53.714;10.514;2024-02-21T12:44:29;25.67;;;10.43;;
74471;SDS011;73591;53.714;10.514;2024-02-21T12:46:54;23.60;;;9.73;;
74471;SDS011;73591;53.714;10.514;2024-02-21T12:49:19;23.35;;;10.73;;
74471;SDS011;73591;53.714;10.514;2024-02-21T12:51:45;17.73;;;8.05;;
74471;SDS011;73591;53.714;10.514;2024-02-21T12:54:12;24.70;;;9.88;;
74471;SDS011;73591;53.714;10.514;2024-02-21T12:56:37;15.30;;;6.05;;
74471;SDS011;73591;53.714;10.514;2024-02-21T12:59:03;17.70;;;7.28;;
74471;SDS011;73591;53.714;10.514;2024-02-21T13:01:28;16.95;;;7.43;;
74471;SDS011;73591;53.714;10.514;2024-02-21T13:03:53;18.70;;;8.23;;
74471;SDS011;73591;53.714;10.514;2024-02-21T13:06:19;19.88;;;8.30;;
74471;SDS011;73591;53.714;10.514;2024-02-21T13:08:44;23.88;;;9.50;;
74471;SDS011;73591;53.714;10.514;2024-02-21T13:11:11;19.27;;;7.18;;
74471;SDS011;73591;53.714;10.514;2024-02-21T13:13:37;22.67;;;8.80;;
74471;SDS011;73591;53.714;10.514;2024-02-21T13:16:03;18.95;;;8.80;;
74471;SDS011;73591;53.714;10.514;2024-02-21T13:18:28;19.05;;;8.50;;
74471;SDS011;73591;53.714;10.514;2024-02-21T13:20:54;22.73;;;8.88;;
74471;SDS011;73591;53.714;10.514;2024-02-21T13:23:19;22.08;;;8.00;;
74471;SDS011;73591;53.714;10.514;2024-02-21T13:25:46;16.05;;;5.90;;
74471;SDS011;73591;53.714;10.514;2024-02-21T13:28:12;15.85;;;6.78;;
74471;SDS011;73591;53.714;10.514;2024-02-21T13:30:38;18.55;;;7.05;;
74471;SDS011;73591;53.714;10.514;2024-02-21T13:33:03;18.35;;;9.38;;
74471;SDS011;73591;53.714;10.514;2024-02-21T13:35:30;19.45;;;9.02;;
74471;SDS011;73591;53.714;10.514;2024-02-21T13:37:56;23.02;;;8.77;;
74471;SDS011;73591;53.714;10.514;2024-02-21T13:40:21;16.67;;;8.70;;
74471;SDS011;73591;53.714;10.514;2024-02-21T13:42:46;23.05;;;8.75;;
74471;SDS011;73591;53.714;10.514;2024-02-21T13:45:12;22.52;;;9.80;;
74471;SDS011;73591;53.714;10.514;2024-02-21T13:47:37;26.25;;;10.40;;
74471;SDS011;73591;53.714;10.514;2024-02-21T13:50:04;25.45;;;10.07;;
74471;SDS011;73591;53.714;10.514;2024-02-21T13:52:30;26.42;;;9.82;;
74471;SDS011;73591;53.714;10.514;2024-02-21T13:54:56;22.77;;;9.85;;
74471;SDS011;73591;53.714;10.514;2024-02-21T13:57:22;24.88;;;10.52;;
74471;SDS011;73591;53.714;10.514;2024-02-21T13:59:47;24.58;;;10.40;;
74471;SDS011;73591;53.714;10.514;2024-02-21T14:02:13;24.30;;;10.05;;
74471;SDS011;73591;53.714;10.514;2024-02-21T14:04:38;25.58;;;10.82;;
74471;SDS011;73591;53.714;10.514;2024-02-21T14:07:03;22.23;;;10.60;;
74471;SDS011;73591;53.714;10.514;2024-02-21T14:09:29;21.20;;;8.85;;
74471;SDS011;73591;53.714;10.514;2024-02-21T14:11:54;23.40;;;9.85;;
74471;SDS011;73591;53.714;10.514;2024-02-21T14:14:20;24.13;;;9.98;;
74471;SDS011;73591;53.714;10.514;2024-02-21T14:16:45;25.05;;;12.05;;
74471;SDS011;73591;53.714;10.514;2024-02-21T14:19:12;31.02;;;10.82;;
74471;SDS011;73591;53.714;10.514;2024-02-21T14:21:38;18.33;;;8.32;;